createdAt,value
2019-01-16T00:00:53.659Z,20.60
2019-01-16T00:03:32.872Z,21.03
2019-01-16T00:06:14.888Z,21.90
2019-01-16T00:08:53.706Z,26.97
2019-01-16T00:11:26.498Z,23.33
2019-01-16T00:13:59.429Z,21.50
2019-01-16T00:16:37.994Z,26.00
2019-01-16T00:19:10.840Z,19.63
2019-01-16T00:21:49.561Z,22.57
2019-01-16T00:24:28.732Z,21.30
2019-01-16T00:27:04.713Z,20.33
2019-01-16T00:29:52.903Z,20.90
2019-01-16T00:32:22.944Z,20.60
2019-01-16T00:34:59.069Z,19.97
2019-01-16T00:37:35.377Z,15.33
2019-01-16T00:40:08.945Z,18.33
2019-01-16T00:42:47.055Z,17.80
2019-01-16T00:45:16.892Z,18.70
2019-01-16T00:47:47.082Z,20.13
2019-01-16T00:50:23.118Z,19.73
2019-01-16T00:52:53.158Z,28.30
2019-01-16T00:55:41.141Z,17.20
2019-01-16T00:58:13.835Z,17.40
2019-01-16T01:00:43.923Z,16.27
2019-01-16T01:03:14.031Z,15.37
2019-01-16T01:05:56.013Z,15.17
2019-01-16T01:08:26.054Z,16.67
2019-01-16T01:10:56.124Z,15.87
2019-01-16T01:13:26.147Z,18.07
2019-01-16T01:16:05.014Z,18.83
2019-01-16T01:18:51.483Z,17.27
2019-01-16T01:21:37.805Z,18.90
2019-01-16T01:24:20.253Z,15.47
2019-01-16T01:27:08.881Z,16.80
2019-01-16T01:29:50.711Z,12.13
2019-01-16T01:32:32.994Z,15.97
2019-01-16T01:35:03.137Z,19.50
2019-01-16T01:37:45.675Z,12.60
2019-01-16T01:40:24.566Z,12.80
2019-01-16T01:43:03.689Z,14.50
2019-01-16T01:45:36.431Z,16.90
2019-01-16T01:48:22.955Z,13.90
2019-01-16T01:51:05.183Z,16.53
2019-01-16T01:53:41.346Z,10.13
2019-01-16T01:56:17.491Z,10.57
2019-01-16T01:58:47.613Z,18.27
2019-01-16T02:01:17.657Z,13.07
2019-01-16T02:04:05.899Z,17.70
2019-01-16T02:09:36.589Z,13.13
2019-01-16T02:12:18.395Z,11.20
2019-01-16T02:14:57.562Z,15.87
2019-01-16T02:17:44.041Z,12.73
2019-01-16T02:20:22.804Z,15.90
2019-01-16T02:22:55.415Z,9.63
2019-01-16T02:25:34.161Z,14.17
2019-01-16T02:28:20.651Z,11.07
2019-01-16T02:30:50.707Z,12.33
2019-01-16T02:33:26.710Z,12.23
2019-01-16T02:35:56.807Z,13.40
2019-01-16T02:38:32.685Z,12.73
2019-01-16T02:41:05.625Z,10.07
2019-01-16T02:43:54.102Z,12.77
2019-01-16T02:46:32.330Z,12.00
2019-01-16T02:49:02.452Z,13.53
2019-01-16T02:51:32.545Z,17.93
2019-01-16T02:54:18.749Z,14.37
2019-01-16T02:56:48.783Z,15.20
2019-01-16T02:59:18.815Z,13.63
2019-01-16T03:01:57.763Z,16.80
2019-01-16T03:04:33.645Z,12.37
2019-01-16T03:07:12.637Z,11.97
2019-01-16T03:12:43.019Z,14.00
2019-01-16T03:15:29.115Z,14.27
2019-01-16T03:18:01.787Z,10.73
2019-01-16T03:20:31.926Z,15.37
2019-01-16T03:23:16.919Z,17.27
2019-01-16T03:26:03.469Z,11.83
2019-01-16T03:28:42.405Z,11.50
2019-01-16T03:31:29.076Z,11.00
2019-01-16T03:33:59.127Z,14.37
2019-01-16T03:37:04.728Z,10.60
2019-01-16T03:39:37.356Z,10.57
2019-01-16T03:42:07.447Z,14.23
2019-01-16T03:44:40.443Z,10.80
2019-01-16T03:47:12.991Z,12.03
2019-01-16T03:49:45.777Z,11.27
2019-01-16T03:52:15.845Z,8.77
2019-01-16T03:54:54.603Z,14.57
2019-01-16T03:57:30.477Z,14.03
2019-01-16T04:00:16.471Z,12.77
2019-01-16T04:02:46.519Z,14.87
2019-01-16T04:05:28.755Z,8.33
2019-01-16T04:07:58.809Z,10.20
2019-01-16T04:10:28.925Z,14.00
2019-01-16T04:13:02.865Z,13.67
2019-01-16T04:15:35.865Z,15.10
2019-01-16T04:18:15.137Z,11.60
2019-01-16T04:20:54.285Z,11.13
2019-01-16T04:23:30.318Z,15.07
2019-01-16T04:26:16.997Z,9.43
2019-01-16T04:29:03.742Z,11.83
2019-01-16T04:31:45.763Z,12.33
2019-01-16T04:34:16.329Z,9.17
2019-01-16T04:36:48.853Z,10.13
2019-01-16T04:39:27.960Z,11.37
2019-01-16T04:42:14.206Z,13.57
2019-01-16T04:44:46.950Z,6.93
2019-01-16T04:47:33.115Z,12.73
2019-01-16T04:50:03.249Z,8.50
2019-01-16T04:52:36.667Z,10.13
2019-01-16T04:55:23.934Z,10.90
2019-01-16T04:57:54.064Z,12.90
2019-01-16T05:00:26.699Z,10.37
2019-01-16T05:03:11.950Z,9.63
2019-01-16T05:05:57.409Z,6.57
2019-01-16T05:08:36.519Z,7.60
2019-01-16T05:11:06.584Z,12.60
2019-01-16T05:13:51.451Z,7.07
2019-01-16T05:16:33.481Z,10.67
2019-01-16T05:19:06.439Z,9.57
2019-01-16T05:21:36.504Z,8.53
2019-01-16T05:24:12.587Z,7.63
2019-01-16T05:26:42.923Z,10.17
2019-01-16T05:29:27.682Z,10.50
2019-01-16T05:32:00.907Z,9.67
2019-01-16T05:37:14.615Z,11.17
2019-01-16T05:40:01.071Z,10.07
2019-01-16T05:42:31.137Z,4.27
2019-01-16T05:45:04.002Z,6.27
2019-01-16T05:47:36.609Z,6.13
2019-01-16T05:50:11.646Z,8.10
2019-01-16T05:52:44.046Z,6.97
2019-01-16T05:55:30.259Z,10.77
2019-01-16T05:58:00.360Z,9.27
2019-01-16T06:00:30.367Z,13.67
2019-01-16T06:03:00.381Z,9.30
2019-01-16T06:05:46.703Z,13.37
2019-01-16T06:08:28.084Z,14.10
2019-01-16T06:11:00.977Z,12.17
2019-01-16T06:13:31.011Z,9.10
2019-01-16T06:16:03.965Z,12.80
2019-01-16T06:18:39.948Z,11.17
2019-01-16T06:21:13.040Z,14.47
2019-01-16T06:23:43.372Z,16.27
2019-01-16T06:26:16.403Z,11.23
2019-01-16T06:28:46.415Z,16.53
2019-01-16T06:35:19.498Z,14.43
2019-01-16T06:38:07.674Z,19.57
2019-01-16T06:40:49.847Z,14.00
2019-01-16T06:43:31.756Z,16.37
2019-01-16T06:46:04.327Z,20.70
2019-01-16T06:48:52.258Z,16.03
2019-01-16T06:51:30.867Z,17.00
2019-01-16T06:54:03.661Z,17.93
2019-01-16T06:56:33.850Z,18.63
2019-01-16T06:59:03.920Z,23.10
2019-01-16T07:01:33.995Z,17.63
2019-01-16T07:04:20.071Z,18.30
2019-01-16T07:06:50.228Z,21.00
2019-01-16T07:09:28.942Z,18.97
2019-01-16T07:12:16.250Z,18.37
2019-01-16T07:14:49.051Z,19.90
2019-01-16T07:17:19.167Z,19.23
2019-01-16T07:20:09.915Z,21.37
2019-01-16T07:22:52.053Z,16.17
2019-01-16T07:25:22.117Z,24.53
2019-01-16T07:28:04.162Z,23.30
2019-01-16T07:30:43.372Z,17.70
2019-01-16T07:33:28.479Z,20.00
2019-01-16T07:35:58.568Z,21.43
2019-01-16T07:38:31.487Z,14.97
2019-01-16T07:41:17.859Z,19.27
2019-01-16T07:43:51.890Z,24.20
2019-01-16T07:46:22.078Z,21.87
2019-01-16T07:49:06.933Z,20.03
2019-01-16T07:51:37.105Z,20.07
2019-01-16T07:54:13.100Z,21.23
2019-01-16T07:56:52.910Z,19.47
2019-01-16T07:59:37.631Z,20.97
2019-01-16T08:08:53.459Z,25.10
2019-01-16T08:11:35.507Z,24.47
2019-01-16T08:20:15.087Z,26.70
2019-01-16T08:22:47.912Z,20.37
2019-01-16T08:25:18.120Z,17.57
2019-01-16T08:28:04.507Z,18.43
2019-01-16T08:30:37.527Z,16.53
2019-01-16T08:33:19.583Z,19.93
2019-01-16T08:36:04.808Z,26.47
2019-01-16T08:38:51.270Z,23.63
2019-01-16T08:41:39.317Z,20.20
2019-01-16T08:44:24.622Z,20.40
2019-01-16T08:47:11.072Z,17.20
2019-01-16T08:49:41.178Z,26.20
2019-01-16T08:52:14.010Z,21.30
2019-01-16T08:55:00.183Z,20.17
2019-01-16T08:57:46.452Z,23.50
2019-01-16T09:00:19.364Z,18.50
2019-01-16T09:02:52.261Z,25.37
2019-01-16T09:05:37.274Z,19.40
2019-01-16T09:08:16.422Z,18.30
2019-01-16T09:11:02.853Z,22.80
2019-01-16T09:16:40.838Z,23.80
2019-01-16T09:19:23.385Z,21.20
2019-01-16T09:22:09.812Z,15.90
2019-01-16T09:24:43.360Z,17.60
2019-01-16T09:27:31.778Z,25.20
2019-01-16T09:38:37.641Z,23.00
2019-01-16T09:41:35.434Z,25.33
2019-01-16T09:44:08.023Z,22.30
2019-01-16T09:46:43.790Z,18.43
2019-01-16T09:49:30.226Z,22.10
2019-01-16T09:52:09.094Z,20.57
2019-01-16T09:54:45.248Z,23.38
2019-01-16T09:57:31.676Z,19.40
2019-01-16T10:00:07.862Z,20.40
2019-01-16T10:02:54.371Z,24.23
2019-01-16T10:05:27.250Z,26.53
2019-01-16T10:08:09.134Z,15.57
2019-01-16T10:10:42.140Z,21.90
2019-01-16T10:13:15.036Z,24.27
2019-01-16T10:16:03.367Z,21.50
2019-01-16T10:18:36.107Z,21.97
2019-01-16T10:21:15.320Z,20.50
2019-01-16T10:23:51.338Z,26.40
2019-01-16T10:26:30.134Z,21.53
2019-01-16T10:29:08.930Z,26.33
2019-01-16T10:31:39.087Z,25.57
2019-01-16T10:34:09.138Z,23.10
2019-01-16T10:36:39.154Z,31.93
2019-01-16T10:39:19.057Z,30.27
2019-01-16T10:41:52.258Z,26.43
2019-01-16T10:44:38.582Z,33.17
2019-01-16T10:47:13.678Z,25.60
2019-01-16T10:49:43.383Z,31.27
2019-01-16T10:52:13.434Z,25.80
2019-01-16T10:54:43.433Z,24.20
2019-01-16T10:57:31.661Z,25.57
2019-01-16T11:00:13.754Z,30.10
2019-01-16T11:02:46.820Z,20.83
2019-01-16T11:05:25.798Z,25.93
2019-01-16T11:07:58.378Z,20.80
2019-01-16T11:10:37.150Z,17.23
2019-01-16T11:13:13.052Z,24.33
2019-01-16T11:15:59.532Z,21.17
2019-01-16T11:21:47.180Z,26.33
2019-01-16T11:24:26.142Z,20.50
2019-01-16T11:27:05.916Z,18.07
2019-01-16T11:30:08.012Z,22.50
2019-01-16T11:32:38.461Z,26.03
2019-01-16T11:35:25.714Z,20.33
2019-01-16T11:38:12.074Z,17.93
2019-01-16T11:40:47.856Z,24.27
2019-01-16T11:43:26.927Z,18.85
2019-01-16T11:45:57.006Z,20.52
2019-01-16T11:48:42.320Z,12.73
2019-01-16T11:51:20.932Z,20.10
2019-01-16T11:53:53.837Z,14.27
2019-01-16T11:56:26.480Z,16.70
2019-01-16T11:59:14.498Z,15.63
2019-01-16T12:05:21.575Z,21.20
2019-01-16T12:08:00.764Z,18.77
2019-01-16T12:10:48.376Z,16.93
2019-01-16T12:13:20.801Z,14.07
2019-01-16T12:16:09.024Z,14.53
2019-01-16T12:18:57.226Z,19.77
2019-01-16T12:21:39.236Z,20.60
2019-01-16T12:24:09.344Z,14.97
2019-01-16T12:26:48.404Z,14.33
2019-01-16T12:29:18.453Z,15.87
2019-01-16T12:32:04.754Z,15.43
2019-01-16T12:34:34.796Z,11.73
2019-01-16T12:37:21.006Z,18.87
2019-01-16T12:39:53.891Z,16.40
2019-01-16T12:42:26.802Z,22.23
2019-01-16T12:44:59.896Z,18.80
2019-01-16T12:47:32.478Z,13.77
2019-01-16T12:50:14.324Z,18.30
2019-01-16T12:52:59.522Z,17.70
2019-01-16T12:55:47.746Z,18.13
2019-01-16T12:58:26.524Z,19.00
2019-01-16T13:00:59.559Z,21.57
2019-01-16T13:03:35.522Z,18.93
2019-01-16T13:06:14.530Z,23.80
2019-01-16T13:08:47.194Z,22.67
2019-01-16T13:11:33.472Z,27.57
2019-01-16T13:14:20.520Z,21.17
2019-01-16T13:16:53.663Z,18.43
2019-01-16T13:19:28.190Z,24.10
2019-01-16T13:22:06.999Z,21.97
2019-01-16T13:24:53.159Z,21.30
2019-01-16T13:27:25.926Z,16.67
2019-01-16T13:30:07.873Z,20.60
2019-01-16T13:32:46.908Z,19.73
2019-01-16T13:35:31.856Z,18.73
2019-01-16T13:38:03.718Z,24.60
2019-01-16T13:40:37.340Z,18.87
2019-01-16T13:43:13.063Z,30.27
2019-01-16T13:45:59.942Z,25.60
2019-01-16T13:48:30.003Z,22.67
2019-01-16T13:51:00.047Z,21.30
2019-01-16T13:53:36.010Z,19.17
2019-01-16T13:56:24.327Z,21.37
2019-01-16T13:58:57.473Z,19.83
2019-01-16T14:01:41.194Z,17.20
2019-01-16T14:04:16.977Z,20.93
2019-01-16T14:06:49.816Z,19.97
2019-01-16T14:09:36.244Z,21.80
2019-01-16T14:12:21.692Z,21.67
2019-01-16T14:17:50.330Z,22.00
2019-01-16T14:20:36.402Z,25.10
2019-01-16T14:23:09.494Z,19.37
2019-01-16T14:25:40.358Z,22.60
2019-01-16T14:28:25.916Z,17.67
2019-01-16T14:31:18.130Z,15.90
2019-01-16T14:34:15.045Z,19.43
2019-01-16T14:36:49.360Z,21.57
2019-01-16T14:39:37.031Z,17.63
2019-01-16T14:42:27.741Z,17.73
2019-01-16T14:45:00.740Z,24.07
2019-01-16T14:47:34.351Z,18.27
2019-01-16T14:50:04.454Z,23.43
2019-01-16T14:52:50.024Z,19.50
2019-01-16T14:55:26.364Z,20.50
2019-01-16T14:58:02.137Z,20.03
2019-01-16T15:00:32.189Z,15.50
2019-01-16T15:03:04.772Z,26.30
2019-01-16T15:05:40.803Z,23.97
2019-01-16T15:08:13.464Z,21.67
2019-01-16T15:24:54.855Z,20.10
2019-01-16T15:27:27.987Z,16.93
2019-01-16T15:30:14.089Z,16.77
2019-01-16T15:32:46.815Z,22.63
2019-01-16T15:35:16.833Z,19.43
2019-01-16T15:37:52.960Z,15.13
2019-01-16T15:40:29.070Z,17.43
2019-01-16T15:43:16.078Z,24.37
2019-01-16T15:45:49.124Z,15.63
2019-01-16T15:48:31.401Z,21.03
2019-01-16T15:51:10.758Z,17.53
2019-01-16T15:53:41.264Z,17.40
2019-01-16T15:56:26.505Z,17.17
2019-01-16T15:59:03.005Z,18.10
2019-01-16T16:01:35.737Z,18.30
2019-01-16T16:04:14.691Z,24.10
2019-01-16T16:06:47.571Z,17.20
2019-01-16T16:09:23.702Z,21.90
2019-01-16T16:12:02.533Z,29.00
2019-01-16T16:14:48.710Z,19.87
2019-01-16T16:23:28.734Z,19.10
2019-01-16T16:25:58.745Z,26.07
2019-01-16T16:28:47.021Z,28.10
2019-01-16T16:31:27.251Z,27.63
2019-01-16T16:34:01.188Z,23.33
2019-01-16T16:36:33.837Z,24.60
2019-01-16T16:39:07.023Z,26.00
2019-01-16T16:41:44.838Z,21.07
2019-01-16T16:44:27.959Z,24.80
2019-01-16T16:47:03.564Z,24.63
2019-01-16T16:52:27.291Z,23.50
2019-01-16T16:54:57.399Z,25.30
2019-01-16T16:57:43.717Z,23.00
2019-01-16T17:00:42.994Z,20.97
2019-01-16T17:03:40.308Z,28.87
2019-01-16T17:06:10.338Z,26.23
2019-01-16T17:08:55.294Z,22.37
2019-01-16T17:11:31.034Z,22.50
2019-01-16T17:14:17.082Z,24.87
2019-01-16T17:16:47.239Z,18.97
2019-01-16T17:19:19.855Z,19.17
2019-01-16T17:22:09.318Z,16.37
2019-01-16T17:25:09.043Z,28.63
2019-01-16T17:27:44.781Z,27.32
2019-01-16T17:42:15.279Z,20.43
2019-01-16T17:44:45.401Z,21.93
2019-01-16T17:47:31.730Z,27.87
2019-01-16T17:50:15.566Z,21.57
2019-01-16T17:53:01.643Z,19.13
2019-01-16T17:55:31.730Z,22.03
2019-01-16T17:58:07.555Z,21.83
2019-01-16T18:01:14.748Z,19.60
2019-01-16T18:45:23.720Z,15.67
2019-01-16T18:48:00.326Z,24.97
2019-01-16T18:51:05.991Z,16.93
2019-01-16T18:59:45.876Z,13.60
2019-01-16T19:02:48.784Z,25.73
2019-01-16T19:05:36.886Z,24.93
2019-01-16T19:08:30.029Z,18.33
2019-01-16T19:11:19.809Z,19.30
2019-01-16T19:14:01.309Z,26.07
2019-01-16T19:16:48.527Z,21.80
2019-01-16T19:19:22.499Z,17.95
2019-01-16T19:22:04.823Z,23.40
2019-01-16T19:24:40.591Z,21.80
2019-01-16T19:27:19.887Z,18.47
2019-01-16T19:29:53.132Z,15.93
2019-01-16T19:32:35.213Z,21.97
2019-01-16T19:35:23.447Z,22.73
2019-01-16T19:38:05.054Z,20.67
2019-01-16T19:40:51.572Z,28.90
2019-01-16T19:43:38.090Z,23.13
2019-01-16T19:46:16.941Z,26.33
2019-01-16T19:49:03.418Z,26.90
2019-01-16T19:51:42.677Z,23.43
2019-01-16T19:54:12.861Z,19.83
2019-01-16T19:56:49.383Z,19.43
2019-01-16T19:59:25.307Z,17.20
2019-01-16T20:02:00.944Z,19.93
2019-01-16T20:04:31.450Z,23.37
2019-01-16T20:07:01.513Z,25.43
2019-01-16T20:09:34.971Z,22.13
2019-01-16T20:12:13.650Z,24.43
2019-01-16T20:15:06.326Z,27.23
2019-01-16T20:17:32.428Z,19.70
2019-01-16T20:20:22.940Z,22.00
2019-01-16T20:23:11.177Z,25.67
2019-01-16T20:25:53.015Z,24.90
2019-01-16T20:28:25.646Z,23.83
2019-01-16T20:30:58.368Z,23.77
2019-01-16T20:33:44.508Z,22.77
2019-01-16T20:36:20.371Z,21.73
2019-01-16T20:39:02.268Z,19.80
2019-01-16T20:41:35.659Z,19.47
2019-01-16T20:47:03.432Z,25.77
2019-01-16T20:49:53.281Z,23.00
2019-01-16T20:52:23.330Z,24.63
2019-01-16T20:55:09.267Z,29.00
2019-01-16T20:57:54.102Z,36.50
2019-01-16T21:00:31.685Z,30.00
2019-01-16T21:03:16.657Z,31.70
2019-01-16T21:06:16.915Z,24.00
2019-01-16T21:08:52.577Z,29.07
2019-01-16T21:11:38.743Z,30.40
2019-01-16T21:14:08.784Z,28.70
2019-01-16T21:16:41.389Z,33.03
2019-01-16T21:19:27.299Z,28.27
2019-01-16T21:21:57.332Z,24.23
2019-01-16T21:24:36.570Z,25.60
2019-01-16T21:27:06.617Z,32.07
2019-01-16T21:29:51.811Z,26.17
2019-01-16T21:32:25.945Z,24.63
2019-01-16T21:35:10.859Z,21.93
2019-01-16T21:37:40.929Z,30.77
2019-01-16T21:43:14.068Z,29.50
2019-01-16T21:45:52.767Z,17.97
2019-01-16T21:48:25.735Z,20.23
2019-01-16T21:51:01.740Z,25.43
2019-01-16T21:53:37.620Z,21.50
2019-01-16T21:56:11.917Z,24.47
2019-01-16T21:58:47.999Z,26.33
2019-01-16T22:01:23.777Z,26.30
2019-01-16T22:04:09.835Z,23.27
2019-01-16T22:06:42.679Z,28.63
2019-01-16T22:09:15.298Z,30.37
2019-01-16T22:11:47.321Z,33.43
2019-01-16T22:14:20.320Z,30.33
2019-01-16T22:16:50.450Z,25.57
2019-01-16T22:19:32.397Z,30.60
2019-01-16T22:25:21.903Z,31.03
2019-01-16T22:27:56.310Z,34.30
2019-01-16T22:30:30.626Z,33.60
2019-01-16T22:33:04.721Z,35.60
2019-01-16T22:35:40.689Z,46.10
2019-01-16T22:38:16.408Z,43.40
2019-01-16T22:40:46.454Z,47.63
2019-01-16T22:43:32.737Z,34.33
2019-01-16T22:46:19.164Z,45.70
2019-01-16T22:49:09.995Z,38.77
2019-01-16T22:51:45.763Z,34.13
2019-01-16T22:54:15.894Z,35.47
2019-01-16T22:57:08.746Z,29.97
2019-01-16T22:59:58.208Z,29.93
2019-01-16T23:10:06.167Z,30.40
2019-01-16T23:12:53.077Z,28.07
2019-01-16T23:15:29.340Z,26.00
2019-01-16T23:18:08.704Z,32.10
2019-01-16T23:20:44.544Z,28.20
2019-01-16T23:23:20.455Z,26.60
2019-01-16T23:25:56.362Z,28.37
2019-01-16T23:28:35.299Z,30.20
2019-01-16T23:31:08.135Z,28.20
2019-01-16T23:33:40.856Z,29.47
2019-01-16T23:36:13.631Z,28.03
2019-01-16T23:38:46.709Z,27.13
2019-01-16T23:41:16.759Z,28.93
2019-01-16T23:43:46.885Z,35.30
2019-01-16T23:46:16.895Z,33.80
